Time;durP1;ratioP1;P1;durP2;ratioP2;P2;SDS_P1;SDS_P2;PMS_P1;PMS_P2;Temp;Humidity;BMP_temperature;BMP_pressure;BME280_temperature;BME280_humidity;BME280_pressure;Samples;Min_cycle;Max_cycle;Signal;HPM_P1;HPM_P2
2022/03/11 00:00:38;;;;;;;8.93;4.45;;;;;;;4.26;65.17;100318.47;5091106;28;20016;-60
2022/03/11 00:03:03;;;;;;;10.02;4.68;;;;;;;4.12;66.27;100311.50;5091024;28;20089;-60
2022/03/11 00:05:29;;;;;;;9.43;4.75;;;;;;;4.15;66.32;100316.75;5091228;28;20511;-60
2022/03/11 00:07:55;;;;;;;8.68;4.57;;;;;;;4.16;67.11;100311.47;5093351;28;20024;-60
2022/03/11 00:10:21;;;;;;;10.75;5.70;;;;;;;4.15;67.16;100309.72;5111073;28;20462;-60
2022/03/11 00:12:46;;;;;;;9.80;4.95;;;;;;;4.16;67.22;100310.59;5111476;28;20023;-60
2022/03/11 00:15:11;;;;;;;6.82;4.72;;;;;;;4.11;67.17;100318.50;5111424;28;20050;-60
2022/03/11 00:17:37;;;;;;;7.65;4.80;;;;;;;4.04;68.09;100316.75;5111316;28;20047;-60
2022/03/11 00:20:03;;;;;;;10.88;5.20;;;;;;;3.97;69.02;100315.00;5098424;28;20031;-60
2022/03/11 00:22:28;;;;;;;10.23;5.00;;;;;;;3.93;68.22;100318.53;5090897;28;20032;-60
2022/03/11 00:24:55;;;;;;;9.57;5.20;;;;;;;4.01;69.04;100311.50;5090509;28;20061;-60
2022/03/11 00:27:21;;;;;;;7.78;4.80;;;;;;;4.07;68.20;100316.72;5090712;28;20028;-60
2022/03/11 00:29:46;;;;;;;9.90;4.95;;;;;;;4.01;68.43;100311.50;5090298;28;20356;-60
2022/03/11 00:32:11;;;;;;;10.38;5.53;;;;;;;3.97;68.80;100315.00;5091018;28;20073;-60
2022/03/11 00:34:37;;;;;;;12.80;5.72;;;;;;;3.91;68.76;100321.16;5095986;28;20111;-60
2022/03/11 00:37:03;;;;;;;9.02;4.65;;;;;;;3.85;68.03;100315.91;5090379;28;20031;-60
2022/03/11 00:39:28;;;;;;;11.00;5.75;;;;;;;3.88;68.34;100309.75;5088595;28;20028;-60
2022/03/11 00:41:55;;;;;;;9.63;5.65;;;;;;;3.89;68.34;100316.75;5090654;28;20034;-60
2022/03/11 00:44:20;;;;;;;17.67;5.75;;;;;;;3.91;67.98;100315.00;5090540;28;20026;-60
2022/03/11 00:46:46;;;;;;;6.55;4.65;;;;;;;3.92;68.16;100316.78;5090646;28;20790;-60
2022/03/11 00:49:12;;;;;;;12.13;5.80;;;;;;;3.91;67.54;100312.38;5090162;28;20028;-60
2022/03/11 00:51:37;;;;;;;7.93;4.72;;;;;;;3.86;68.37;100316.78;5100888;28;20493;-60
2022/03/11 00:54:03;;;;;;;11.38;5.95;;;;;;;3.83;69.44;100314.16;5110328;28;20023;-60
2022/03/11 00:56:30;;;;;;;8.45;4.80;;;;;;;3.84;69.21;100316.78;5097081;28;20035;-60
2022/03/11 00:58:56;;;;;;;10.13;5.68;;;;;;;3.83;69.12;100312.41;5090016;28;20364;-60
2022/03/11 01:01:22;;;;;;;12.25;5.85;;;;;;;3.84;68.41;100308.88;5089952;28;20028;-60
2022/03/11 01:03:47;;;;;;;13.10;5.75;;;;;;;3.83;67.46;100312.41;5090036;28;20039;-60
2022/03/11 01:06:13;;;;;;;13.95;6.07;;;;;;;3.85;67.13;100304.50;5090232;28;20389;-60
2022/03/11 01:08:38;;;;;;;11.70;5.28;;;;;;;3.83;67.06;100307.16;5098247;28;20356;-60
2022/03/11 01:11:04;;;;;;;11.95;6.05;;;;;;;3.77;68.02;100301.88;5110022;28;20078;-60
2022/03/11 01:13:29;;;;;;;10.13;6.03;;;;;;;3.74;68.07;100301.88;5110047;28;20503;-60
2022/03/11 01:15:55;;;;;;;8.35;5.22;;;;;;;3.67;68.37;100297.50;5110254;28;20497;-60
2022/03/11 01:18:20;;;;;;;13.80;6.22;;;;;;;3.70;67.99;100309.78;5109890;28;20043;-60
2022/03/11 01:20:45;;;;;;;11.60;6.07;;;;;;;3.61;68.08;100307.13;5109800;28;20478;-60
2022/03/11 01:23:12;;;;;;;10.98;5.53;;;;;;;3.54;69.58;100297.53;5109691;28;20059;-60
2022/03/11 01:25:37;;;;;;;12.82;6.55;;;;;;;3.50;69.53;100301.00;5103950;28;20533;-60
2022/03/11 01:28:03;;;;;;;11.13;5.60;;;;;;;3.48;71.00;100297.50;5091714;28;20103;-60
2022/03/11 01:30:28;;;;;;;11.65;5.88;;;;;;;3.49;71.56;100301.91;5089712;28;20027;-60
2022/03/11 01:32:53;;;;;;;9.65;4.80;;;;;;;3.51;71.15;100302.78;5092512;28;20503;-60
2022/03/11 01:35:19;;;;;;;11.02;6.22;;;;;;;3.47;71.44;100301.00;5089802;28;20534;-60
2022/03/11 01:37:44;;;;;;;10.10;5.70;;;;;;;3.46;70.31;100297.50;5088983;28;20498;-60
2022/03/11 01:40:10;;;;;;;11.55;5.35;;;;;;;3.41;71.00;100290.50;5089694;28;20035;-60
2022/03/11 01:42:36;;;;;;;9.95;5.38;;;;;;;3.38;70.80;100293.09;5089523;28;20024;-60
2022/03/11 01:45:04;;;;;;;11.00;6.38;;;;;;;3.33;70.85;100297.47;5090081;28;20040;-60
2022/03/11 01:47:30;;;;;;;12.15;5.93;;;;;;;3.26;70.72;100295.75;5089288;28;20575;-60
2022/03/11 01:49:55;;;;;;;9.35;5.22;;;;;;;3.14;71.78;100296.59;5091666;28;20115;-60
2022/03/11 01:52:21;;;;;;;15.50;6.55;;;;;;;3.04;71.38;100278.19;5089049;28;20099;-61
2022/03/11 01:54:49;;;;;;;8.75;5.65;;;;;;;3.05;71.39;100285.22;5089540;28;20099;-61
2022/03/11 01:57:15;;;;;;;11.93;6.22;;;;;;;2.95;70.86;100280.81;5087904;28;20031;-60
2022/03/11 01:59:41;;;;;;;13.18;6.40;;;;;;;2.90;70.86;100285.19;5090524;28;20035;-60
2022/03/11 02:02:06;;;;;;;10.73;5.75;;;;;;;2.89;71.46;100293.91;5090064;28;20020;-60
2022/03/11 02:04:32;;;;;;;7.97;5.35;;;;;;;2.79;71.23;100285.13;5091639;28;20031;-60
2022/03/11 02:06:58;;;;;;;9.57;5.15;;;;;;;2.71;72.07;100292.13;5093352;28;20442;-60
2022/03/11 02:09:24;;;;;;;11.48;5.35;;;;;;;2.70;71.70;100291.25;5092683;28;20030;-60
2022/03/11 02:11:49;;;;;;;11.52;5.60;;;;;;;2.66;71.27;100300.00;5075494;28;20108;-60
2022/03/11 02:14:14;;;;;;;11.10;5.25;;;;;;;2.72;71.35;100297.38;5093814;28;20113;-60
2022/03/11 02:16:40;;;;;;;9.50;5.50;;;;;;;2.75;71.61;100298.25;5095753;28;20517;-60
2022/03/11 02:19:07;;;;;;;8.88;5.28;;;;;;;2.76;73.20;100292.13;5092665;28;20514;-60
2022/03/11 02:21:40;;;;;;;9.70;5.57;;;;;;;2.76;73.00;100298.28;5093052;28;20036;-60
2022/03/11 02:24:07;;;;;;;;;;;;;;;2.76;72.97;100298.28;5093598;28;20399;-60
2022/03/11 02:26:33;;;;;;;12.30;5.95;;;;;;;2.72;73.75;100295.63;5093040;28;19950;-60
2022/03/11 02:28:59;;;;;;;13.15;5.95;;;;;;;2.76;73.02;100300.91;5092632;28;20059;-60
2022/03/11 02:31:28;;;;;;;8.52;5.20;;;;;;;2.76;73.34;100298.28;5093320;28;20016;-60
2022/03/11 02:33:54;;;;;;;13.07;7.00;;;;;;;2.67;74.39;100299.13;5095716;28;20403;-60
2022/03/11 02:36:20;;;;;;;12.38;6.30;;;;;;;2.64;73.51;100303.47;5094739;28;20055;-60
2022/03/11 02:38:45;;;;;;;14.07;6.60;;;;;;;2.52;74.39;100278.03;5092850;28;20471;-60
2022/03/11 02:41:11;;;;;;;10.90;6.13;;;;;;;2.62;74.04;100294.69;5092833;28;20039;-60
2022/03/11 02:43:37;;;;;;;13.65;7.60;;;;;;;2.54;74.58;100289.44;5074891;28;20020;-60
2022/03/11 02:46:03;;;;;;;12.35;6.72;;;;;;;2.52;74.18;100290.31;5093192;28;20024;-60
2022/03/11 02:48:29;;;;;;;14.43;6.65;;;;;;;2.47;75.48;100289.44;5092683;28;20024;-60
2022/03/11 02:50:54;;;;;;;12.98;6.28;;;;;;;2.52;74.92;100283.28;5092252;28;20032;-61
2022/03/11 02:53:20;;;;;;;15.32;6.93;;;;;;;2.52;74.94;100291.19;5093449;28;20718;-61
2022/03/11 02:55:45;;;;;;;12.48;7.60;;;;;;;2.48;75.35;100289.44;5103083;28;20479;-61
2022/03/11 02:58:11;;;;;;;11.45;6.85;;;;;;;2.49;75.44;100287.66;5092711;28;20024;-61
2022/03/11 03:00:36;;;;;;;12.07;6.72;;;;;;;2.47;75.03;100285.03;5092467;28;20039;-61
2022/03/11 03:03:02;;;;;;;14.27;7.47;;;;;;;2.38;75.54;100279.75;5092433;28;20016;-61
2022/03/11 03:05:28;;;;;;;9.90;6.07;;;;;;;2.31;75.28;100288.47;5092407;28;20063;-60
2022/03/11 03:07:53;;;;;;;10.27;6.20;;;;;;;2.24;75.39;100286.66;5094343;28;20110;-60
2022/03/11 03:10:19;;;;;;;13.35;8.07;;;;;;;2.19;75.60;100288.41;5112640;28;20455;-60
2022/03/11 03:12:44;;;;;;;13.52;6.90;;;;;;;2.12;75.57;100278.75;5112366;28;20062;-60
2022/03/11 03:15:10;;;;;;;11.88;7.13;;;;;;;2.18;76.20;100281.41;5111888;28;20028;-60
2022/03/11 03:17:35;;;;;;;12.18;7.18;;;;;;;2.19;75.43;100274.41;5111995;28;20168;-60
2022/03/11 03:20:03;;;;;;;13.38;7.22;;;;;;;2.21;76.10;100270.03;5112191;28;20080;-60
2022/03/11 03:22:28;;;;;;;11.40;6.65;;;;;;;2.16;75.45;100272.63;5112767;28;20027;-60
2022/03/11 03:24:54;;;;;;;14.05;7.70;;;;;;;2.11;75.94;100258.63;5095878;28;20098;-60
2022/03/11 03:27:19;;;;;;;17.13;7.63;;;;;;;2.13;75.51;100277.88;5091721;28;20028;-60
2022/03/11 03:29:45;;;;;;;16.23;7.15;;;;;;;2.15;76.35;100270.00;5091955;28;20024;-60
2022/03/11 03:32:10;;;;;;;12.50;6.63;;;;;;;2.21;75.72;100278.78;5105197;28;20470;-60
2022/03/11 03:34:37;;;;;;;14.50;7.75;;;;;;;2.24;76.63;100270.06;5108608;28;20102;-60
2022/03/11 03:37:08;;;;;;;20.23;8.23;;;;;;;2.28;76.63;100279.69;5112183;28;20027;-60
2022/03/11 03:39:38;;;;;;;17.23;7.53;;;;;;;2.26;76.52;100266.56;5111835;28;20042;-60
2022/03/11 03:42:04;;;;;;;17.48;8.30;;;;;;;2.37;76.21;100285.84;5112134;28;20059;-60
2022/03/11 03:44:30;;;;;;;13.57;8.43;;;;;;;2.37;75.59;100285.00;5112140;28;20032;-60
2022/03/11 03:46:56;;;;;;;14.98;7.05;;;;;;;2.35;75.36;100284.09;5111692;28;20471;-60
2022/03/11 03:49:22;;;;;;;16.98;8.00;;;;;;;2.33;74.99;100281.47;5111601;28;20036;-60
2022/03/11 03:51:47;;;;;;;13.82;7.55;;;;;;;2.27;75.96;100284.06;5111173;28;20024;-61
2022/03/11 03:54:13;;;;;;;16.00;7.30;;;;;;;2.20;75.63;100282.28;5107417;28;20028;-60
2022/03/11 03:56:41;;;;;;;10.85;7.22;;;;;;;2.16;74.64;100288.38;5093490;28;20049;-60
2022/03/11 03:59:08;;;;;;;15.55;7.72;;;;;;;2.12;74.95;100285.75;5091060;28;20386;-60
2022/03/11 04:01:35;;;;;;;13.00;7.00;;;;;;;2.06;75.08;100286.56;5091283;28;20381;-60
2022/03/11 04:04:02;;;;;;;11.75;7.57;;;;;;;2.05;74.82;100282.22;5090986;28;20024;-60
2022/03/11 04:06:28;;;;;;;14.82;8.30;;;;;;;2.04;76.12;100288.31;5090319;28;20035;-60
2022/03/11 04:08:56;;;;;;;14.55;8.55;;;;;;;1.98;75.83;100296.16;5100361;28;20027;-60
2022/03/11 04:11:23;;;;;;;12.35;6.80;;;;;;;1.95;77.19;100288.28;5111567;28;20030;-60
2022/03/11 04:13:50;;;;;;;13.10;7.00;;;;;;;1.87;77.22;100289.09;5111112;28;20042;-60
2022/03/11 04:16:16;;;;;;;15.77;7.85;;;;;;;1.80;76.94;100293.41;5111383;28;20073;-60
2022/03/11 04:18:42;;;;;;;13.27;7.63;;;;;;;1.80;77.67;100293.41;5107068;28;20048;-60
2022/03/11 04:21:07;;;;;;;19.02;7.90;;;;;;;1.82;78.28;100296.94;5072942;28;20034;-60
2022/03/11 04:23:32;;;;;;;17.33;8.57;;;;;;;1.87;78.61;100292.59;5090602;28;20028;-60
2022/03/11 04:25:58;;;;;;;19.85;8.93;;;;;;;1.89;77.37;100297.84;5100477;28;20033;-60
2022/03/11 04:28:23;;;;;;;20.05;9.20;;;;;;;1.90;77.59;100302.22;5107622;28;20390;-60
2022/03/11 04:30:49;;;;;;;13.43;7.25;;;;;;;1.91;77.26;100304.84;5110228;28;20023;-60
2022/03/11 04:33:14;;;;;;;18.40;11.05;;;;;;;1.94;75.87;100301.38;5111012;28;20042;-60
2022/03/11 04:35:39;;;;;;;14.27;9.18;;;;;;;1.85;77.04;100306.53;5110403;28;20035;-60
2022/03/11 04:38:05;;;;;;;12.77;7.65;;;;;;;1.86;76.40;100310.94;5109571;28;20385;-60
2022/03/11 04:40:30;;;;;;;20.65;8.95;;;;;;;1.85;76.49;100306.53;5109202;28;20024;-60
2022/03/11 04:42:56;;;;;;;19.15;8.20;;;;;;;1.82;77.02;100312.66;5108949;28;20019;-60
2022/03/11 04:45:24;;;;;;;18.85;7.93;;;;;;;1.81;77.51;100316.16;5110653;28;20027;-61
2022/03/11 04:47:49;;;;;;;15.05;8.52;;;;;;;1.79;77.00;100303.91;5110741;28;20015;-61
2022/03/11 04:50:15;;;;;;;15.30;8.23;;;;;;;1.85;76.24;100307.44;5110620;28;20382;-61
2022/03/11 04:52:40;;;;;;;26.55;8.48;;;;;;;1.88;76.66;100307.44;5111062;28;20027;-61
2022/03/11 04:55:06;;;;;;;14.98;10.75;;;;;;;1.90;77.97;100303.09;5108712;28;20019;-61
2022/03/11 04:57:31;;;;;;;15.82;7.43;;;;;;;1.91;77.69;100299.59;5090355;28;20054;-61
2022/03/11 04:59:57;;;;;;;13.88;8.65;;;;;;;1.97;78.51;100314.50;5089339;28;20043;-61
2022/03/11 05:02:27;;;;;;;17.20;8.27;;;;;;;2.06;76.95;100298.84;5092684;28;20710;-61
2022/03/11 05:04:54;;;;;;;20.88;8.85;;;;;;;2.04;75.90;100301.41;5090104;28;20399;-61
2022/03/11 05:07:19;;;;;;;16.17;8.35;;;;;;;2.03;76.05;100299.69;5090240;28;20032;-61
2022/03/11 05:09:45;;;;;;;19.90;9.80;;;;;;;2.05;76.55;100307.56;5107057;28;20028;-61
2022/03/11 05:12:11;;;;;;;18.35;9.65;;;;;;;2.02;76.75;100310.16;5110635;28;20020;-61
2022/03/11 05:14:38;;;;;;;23.00;8.95;;;;;;;1.87;76.54;100304.81;5110382;28;20535;-61
2022/03/11 05:17:03;;;;;;;13.85;8.90;;;;;;;1.90;75.32;100305.72;5110422;28;20027;-61
2022/03/11 05:19:29;;;;;;;21.92;9.48;;;;;;;1.87;75.29;100305.72;5109527;28;20051;-61
2022/03/11 05:21:55;;;;;;;19.42;9.85;;;;;;;1.89;75.93;100298.72;5110143;28;20020;-61
2022/03/11 05:24:20;;;;;;;14.93;8.82;;;;;;;1.86;76.31;100298.69;5110172;28;20024;-61
2022/03/11 05:26:46;;;;;;;18.45;9.43;;;;;;;1.86;77.03;100303.06;5094460;28;20081;-61
2022/03/11 05:29:12;;;;;;;18.20;8.95;;;;;;;1.85;76.58;100299.56;5089034;28;20391;-61
2022/03/11 05:31:38;;;;;;;17.30;9.45;;;;;;;1.82;76.55;100302.19;5092830;28;20072;-61
2022/03/11 05:34:03;;;;;;;16.15;8.75;;;;;;;1.80;76.95;100301.28;5090122;28;20039;-61
2022/03/11 05:36:29;;;;;;;15.75;9.70;;;;;;;1.67;76.88;100302.06;5093418;28;20042;-61
2022/03/11 05:38:54;;;;;;;16.42;8.68;;;;;;;1.54;77.72;100297.59;5089591;28;20020;-61
2022/03/11 05:41:20;;;;;;;15.30;9.02;;;;;;;1.67;77.27;100315.16;5089454;28;20361;-61
2022/03/11 05:43:45;;;;;;;17.50;8.70;;;;;;;1.70;77.28;100311.72;5087649;28;20028;-61
2022/03/11 05:46:11;;;;;;;17.25;8.85;;;;;;;1.67;76.93;100322.16;5087796;28;20141;-61
2022/03/11 05:48:36;;;;;;;21.33;8.55;;;;;;;1.58;77.95;100322.09;5089108;28;20036;-61
2022/03/11 05:51:02;;;;;;;19.35;9.50;;;;;;;1.60;78.02;100328.22;5089546;28;20575;-61
2022/03/11 05:53:27;;;;;;;12.80;8.70;;;;;;;1.64;77.07;100336.13;5089335;28;20024;-61
2022/03/11 05:55:53;;;;;;;17.83;9.57;;;;;;;1.69;77.36;100336.16;5089640;28;20016;-61
2022/03/11 05:58:18;;;;;;;20.08;9.13;;;;;;;1.74;75.74;100340.56;5097177;28;20024;-61
2022/03/11 06:00:44;;;;;;;23.33;9.23;;;;;;;1.79;76.48;100338.88;5109564;28;20034;-61
2022/03/11 06:03:10;;;;;;;16.55;9.18;;;;;;;1.77;75.34;100340.59;5106879;28;20493;-60
2022/03/11 06:05:35;;;;;;;20.10;8.35;;;;;;;1.83;75.09;100330.13;5109561;28;20072;-61
2022/03/11 06:08:01;;;;;;;13.52;8.60;;;;;;;1.99;75.98;100342.53;5106337;28;20024;-61
2022/03/11 06:10:26;;;;;;;14.95;8.25;;;;;;;2.15;76.34;100335.59;5089013;28;20034;-61
2022/03/11 06:12:52;;;;;;;13.25;8.27;;;;;;;2.37;76.27;100345.38;5089251;28;20467;-61
2022/03/11 06:15:18;;;;;;;35.70;9.45;;;;;;;2.72;74.64;100335.03;5089354;28;20065;-61
2022/03/11 06:17:43;;;;;;;17.40;9.02;;;;;;;3.14;73.23;100329.88;5089729;28;20533;-61
2022/03/11 06:20:11;;;;;;;17.73;10.05;;;;;;;3.62;70.97;100332.56;5106861;28;20469;-60
2022/03/11 06:22:36;;;;;;;23.83;9.30;;;;;;;4.36;67.34;100328.09;5109840;28;20020;-60
2022/03/11 06:25:04;;;;;;;17.88;9.65;;;;;;;5.49;63.09;100321.34;5107916;28;20019;-60
2022/03/11 06:27:29;;;;;;;17.08;8.23;;;;;;;6.68;59.01;100314.03;5089076;28;20555;-60
2022/03/11 06:29:54;;;;;;;19.38;9.13;;;;;;;7.95;53.99;100312.13;5091183;28;20111;-60
2022/03/11 06:32:20;;;;;;;19.60;11.27;;;;;;;9.02;52.05;100318.00;5089497;28;20430;-61
2022/03/11 06:34:48;;;;;;;23.63;10.20;;;;;;;9.83;48.39;100307.25;5088484;28;20127;-61
2022/03/11 06:37:14;;;;;;;22.88;11.68;;;;;;;10.93;46.11;100296.25;5087736;28;20028;-61
2022/03/11 06:39:40;;;;;;;22.42;12.30;;;;;;;11.54;43.54;100304.09;5088532;28;20111;-61
2022/03/11 06:42:06;;;;;;;21.58;12.80;;;;;;;11.81;43.10;100319.25;5088839;28;20563;-61
2022/03/11 06:44:31;;;;;;;20.98;11.88;;;;;;;11.55;42.30;100316.50;5089022;28;20035;-61
2022/03/11 06:46:57;;;;;;;25.35;13.73;;;;;;;11.06;42.48;100308.28;5088978;28;20024;-61
2022/03/11 06:49:22;;;;;;;27.77;13.65;;;;;;;10.59;44.65;100315.00;5090828;28;20024;-61
2022/03/11 06:51:48;;;;;;;24.08;12.48;;;;;;;11.02;44.48;100311.97;5092650;28;20016;-61
2022/03/11 06:54:13;;;;;;;24.13;12.90;;;;;;;11.30;43.54;100318.22;5092711;28;20027;-61
2022/03/11 06:56:39;;;;;;;19.55;11.00;;;;;;;12.01;42.22;100319.44;5092852;28;20026;-61
2022/03/11 06:59:04;;;;;;;41.45;12.43;;;;;;;12.94;40.33;100310.75;5092108;28;20026;-61
2022/03/11 07:01:30;;;;;;;16.40;10.05;;;;;;;13.86;38.24;100316.91;5092517;28;20074;-61
2022/03/11 07:03:56;;;;;;;15.73;9.77;;;;;;;14.35;37.41;100305.91;5092204;28;20070;-61
2022/03/11 07:06:21;;;;;;;17.40;8.65;;;;;;;14.90;37.05;100312.38;5092430;28;20032;-61
2022/03/11 07:08:47;;;;;;;12.40;7.53;;;;;;;15.60;34.86;100318.91;5101948;28;20023;-61
2022/03/11 07:11:12;;;;;;;26.83;9.98;;;;;;;16.15;35.06;100312.56;5096558;28;20160;-61
2022/03/11 07:13:38;;;;;;;19.30;8.98;;;;;;;16.85;34.63;100321.41;5092580;28;20031;-61
2022/03/11 07:16:04;;;;;;;13.13;6.93;;;;;;;17.67;32.76;100317.78;5092381;28;20031;-61
2022/03/11 07:18:29;;;;;;;15.25;7.68;;;;;;;18.11;32.78;100316.06;5092003;28;20048;-61
2022/03/11 07:20:55;;;;;;;13.23;7.40;;;;;;;18.57;31.44;100319.63;5091649;28;20028;-61
2022/03/11 07:23:20;;;;;;;15.93;8.98;;;;;;;18.78;31.59;100320.16;5092170;28;20061;-61
2022/03/11 07:25:46;;;;;;;15.88;7.32;;;;;;;18.96;31.35;100316.31;5098904;28;20473;-61
2022/03/11 07:28:12;;;;;;;20.98;9.48;;;;;;;19.28;31.07;100312.47;5109421;28;20049;-61
2022/03/11 07:30:38;;;;;;;17.95;8.23;;;;;;;19.82;30.15;100319.72;5092874;28;20024;-61
2022/03/11 07:33:03;;;;;;;15.43;8.90;;;;;;;20.23;29.54;100307.06;5094209;28;20036;-61
2022/03/11 07:35:29;;;;;;;23.80;8.68;;;;;;;20.24;29.69;100313.34;5075963;28;20128;-61
2022/03/11 07:37:54;;;;;;;19.80;9.25;;;;;;;20.28;29.20;100321.13;5091939;28;20081;-61
2022/03/11 07:40:20;;;;;;;20.75;8.73;;;;;;;20.81;28.98;100312.94;5091284;28;20021;-61
2022/03/11 07:42:45;;;;;;;17.55;9.27;;;;;;;20.49;28.53;100313.44;5091788;28;20035;-61
2022/03/11 07:45:15;;;;;;;18.42;8.45;;;;;;;20.57;29.38;100305.66;5091954;28;20107;-61
2022/03/11 07:47:41;;;;;;;17.35;8.30;;;;;;;20.85;28.84;100298.22;5091601;28;20027;-61
2022/03/11 07:50:08;;;;;;;30.35;13.48;;;;;;;21.21;28.23;100302.03;5091074;28;20499;-61
2022/03/11 07:52:35;;;;;;;15.07;9.35;;;;;;;20.91;28.66;100300.50;5097336;28;20578;-61
2022/03/11 07:55:00;;;;;;;16.27;10.05;;;;;;;20.70;28.25;100314.66;5109158;28;20042;-61
2022/03/11 07:57:25;;;;;;;16.55;9.52;;;;;;;21.17;28.11;100305.94;5091618;28;20574;-61
2022/03/11 07:59:51;;;;;;;16.38;8.32;;;;;;;20.76;28.13;100304.28;5090907;28;20027;-61
2022/03/11 08:02:16;;;;;;;15.95;8.90;;;;;;;20.68;28.08;100312.06;5090567;28;20028;-61
2022/03/11 08:04:42;;;;;;;15.48;8.63;;;;;;;21.04;28.03;100315.91;5091338;28;20024;-61
2022/03/11 08:07:11;;;;;;;19.67;9.40;;;;;;;20.98;27.71;100306.38;5091727;28;20052;-61
2022/03/11 08:09:38;;;;;;;18.02;9.05;;;;;;;20.05;28.71;100308.28;5107364;28;20031;-61
2022/03/11 08:12:04;;;;;;;15.57;8.48;;;;;;;20.31;29.06;100310.13;5111259;28;20020;-61
2022/03/11 08:14:30;;;;;;;20.95;9.45;;;;;;;20.51;28.92;100308.78;5111598;28;20059;-61
2022/03/11 08:16:56;;;;;;;17.27;8.73;;;;;;;20.12;29.20;100296.09;5111724;28;20068;-61
2022/03/11 08:19:23;;;;;;;15.93;9.15;;;;;;;19.94;29.43;100310.81;5110171;28;20055;-61
2022/03/11 08:21:49;;;;;;;19.17;9.00;;;;;;;19.63;29.56;100308.41;5110095;28;20023;-61
2022/03/11 08:24:15;;;;;;;15.05;8.60;;;;;;;19.40;30.25;100301.81;5111551;28;20030;-61
2022/03/11 08:26:40;;;;;;;19.17;9.38;;;;;;;18.76;30.57;100312.16;5099204;28;20617;-61
2022/03/11 08:29:06;;;;;;;19.27;9.48;;;;;;;18.62;30.86;100313.94;5090532;28;20047;-61
2022/03/11 08:31:32;;;;;;;19.30;9.05;;;;;;;18.54;31.33;100311.72;5093261;28;20023;-61
2022/03/11 08:33:58;;;;;;;14.32;9.02;;;;;;;18.92;31.56;100312.06;5090517;28;20032;-61
2022/03/11 08:36:23;;;;;;;20.80;9.80;;;;;;;18.85;31.28;100311.59;5090818;28;20042;-61
2022/03/11 08:38:49;;;;;;;18.13;10.07;;;;;;;18.68;31.45;100305.50;5090274;28;20047;-61
2022/03/11 08:41:14;;;;;;;14.85;7.90;;;;;;;18.88;30.70;100305.16;5090462;28;20028;-61
2022/03/11 08:43:41;;;;;;;17.25;9.45;;;;;;;18.84;31.40;100295.50;5096571;28;20026;-61
2022/03/11 08:46:10;;;;;;;15.75;8.80;;;;;;;18.51;30.68;100311.03;5107250;28;20023;-61
2022/03/11 08:48:36;;;;;;;16.52;9.65;;;;;;;18.29;31.32;100314.97;5109205;28;20080;-61
2022/03/11 08:51:03;;;;;;;17.55;9.05;;;;;;;18.02;31.33;100315.75;5110027;28;20092;-61
2022/03/11 08:53:28;;;;;;;16.27;8.80;;;;;;;18.26;31.16;100317.00;5108741;28;20433;-61
2022/03/11 08:55:54;;;;;;;17.80;8.68;;;;;;;18.21;30.98;100325.34;5100759;28;20089;-61
2022/03/11 08:58:20;;;;;;;16.70;9.25;;;;;;;18.35;31.03;100314.59;5090450;28;20020;-61
2022/03/11 09:00:45;;;;;;;15.52;9.38;;;;;;;18.08;31.90;100313.56;5089688;28;20103;-61
2022/03/11 09:03:11;;;;;;;18.38;9.13;;;;;;;18.15;31.64;100314.06;5090376;28;20024;-61
2022/03/11 09:05:39;;;;;;;16.02;8.88;;;;;;;18.30;31.64;100310.47;5090600;28;20521;-61
2022/03/11 09:08:07;;;;;;;19.13;11.15;;;;;;;18.47;31.12;100310.34;5093664;28;20026;-61
2022/03/11 09:10:36;;;;;;;16.73;10.02;;;;;;;18.47;31.23;100306.81;5109988;28;20842;-61
2022/03/11 09:13:01;;;;;;;16.38;8.77;;;;;;;18.15;30.61;100295.22;5110037;28;20098;-61
2022/03/11 09:15:27;;;;;;;18.60;9.20;;;;;;;18.45;30.50;100295.25;5109280;28;20492;-61
2022/03/11 09:17:53;;;;;;;17.42;8.50;;;;;;;18.76;31.64;100295.13;5109419;28;20047;-61
2022/03/11 09:20:19;;;;;;;21.23;9.25;;;;;;;18.76;31.95;100284.34;5092152;28;20028;-62
2022/03/11 09:22:44;;;;;;;17.13;9.13;;;;;;;18.28;31.79;100301.63;5089819;28;20177;-62
2022/03/11 09:25:11;;;;;;;21.58;9.30;;;;;;;18.59;31.10;100297.97;5095074;28;20102;-62
2022/03/11 09:27:37;;;;;;;14.13;8.32;;;;;;;18.72;31.48;100304.34;5110055;28;20024;-62
2022/03/11 09:30:05;;;;;;;18.38;9.02;;;;;;;18.64;30.51;100312.91;5102911;28;20485;-61
2022/03/11 09:32:30;;;;;;;19.15;9.02;;;;;;;18.30;31.27;100311.31;5092291;28;20031;-62
2022/03/11 09:34:57;;;;;;;17.55;9.00;;;;;;;18.16;31.58;100305.91;5089867;28;20065;-62
2022/03/11 09:37:23;;;;;;;16.67;8.40;;;;;;;18.57;31.39;100311.53;5089422;28;20063;-61
2022/03/11 09:39:48;;;;;;;17.35;8.93;;;;;;;18.66;30.42;100304.72;5087937;28;20067;-62
2022/03/11 09:42:14;;;;;;;22.48;9.25;;;;;;;18.93;30.71;100306.59;5089312;28;20070;-62
2022/03/11 09:44:40;;;;;;;18.20;9.07;;;;;;;18.80;30.58;100300.22;5092398;28;20051;-62
2022/03/11 09:47:07;;;;;;;15.25;7.85;;;;;;;18.76;29.90;100305.91;5089462;28;20085;-62
2022/03/11 09:49:35;;;;;;;17.38;9.38;;;;;;;18.78;29.80;100294.03;5089042;28;20028;-62
2022/03/11 09:52:07;;;;;;;16.80;8.63;;;;;;;19.04;29.63;100263.66;5089272;28;20027;-62
2022/03/11 09:54:34;;;;;;;15.25;8.60;;;;;;;19.41;29.96;100297.25;5089503;28;20028;-62
2022/03/11 09:57:00;;;;;;;17.33;8.38;;;;;;;19.60;28.88;100278.94;5089594;28;20028;-62
2022/03/11 09:59:26;;;;;;;15.13;8.98;;;;;;;20.04;29.19;100293.03;5086964;28;20064;-62
2022/03/11 10:01:53;;;;;;;19.30;8.75;;;;;;;20.04;28.86;100287.66;5089513;28;20020;-62
2022/03/11 10:04:19;;;;;;;19.55;9.43;;;;;;;19.91;28.34;100289.44;5089399;28;20033;-62
2022/03/11 10:06:47;;;;;;;14.05;8.15;;;;;;;20.43;28.91;100287.69;5089318;28;20044;-62
2022/03/11 10:09:18;;;;;;;16.50;8.95;;;;;;;20.72;28.63;100278.41;5102230;28;20051;-62
2022/03/11 10:11:58;;;;;;;17.67;9.00;;;;;;;20.84;27.53;100282.97;5109726;28;20027;-62
2022/03/11 10:14:34;;;;;;;15.95;8.77;;;;;;;21.00;27.94;100279.22;5096588;28;20028;-62
2022/03/11 10:17:00;;;;;;;14.43;8.57;;;;;;;20.88;28.11;100275.50;5089223;28;20036;-62
2022/03/11 10:19:26;;;;;;;16.00;8.05;;;;;;;20.91;28.50;100286.09;5088663;28;20048;-62
2022/03/11 10:21:55;;;;;;;18.30;8.77;;;;;;;21.12;27.31;100281.06;5091212;28;20092;-62
2022/03/11 10:24:21;;;;;;;13.90;8.57;;;;;;;20.97;27.72;100277.59;5088390;28;20020;-62
2022/03/11 10:26:48;;;;;;;17.40;8.93;;;;;;;20.82;27.21;100279.50;5108981;28;20039;-62
2022/03/11 10:29:21;;;;;;;15.50;9.43;;;;;;;21.21;28.26;100270.44;5113097;28;20505;-62
2022/03/11 10:31:50;;;;;;;24.85;9.80;;;;;;;21.47;28.27;100268.53;5113745;28;20106;-62
2022/03/11 10:34:18;;;;;;;16.60;8.48;;;;;;;21.43;27.31;100267.03;5113319;28;20046;-62
2022/03/11 10:36:58;;;;;;;20.00;9.38;;;;;;;21.42;27.82;100262.56;5094643;28;20031;-62
2022/03/11 10:39:29;;;;;;;20.23;9.40;;;;;;;21.17;27.12;100266.19;5109523;28;20498;-62
2022/03/11 10:42:15;;;;;;;18.35;8.80;;;;;;;20.84;28.21;100261.31;5113371;28;20521;-62
2022/03/11 10:44:52;;;;;;;17.55;8.40;;;;;;;20.84;27.93;100261.31;5113666;28;20019;-62
2022/03/11 10:47:20;;;;;;;15.48;7.85;;;;;;;21.32;28.16;100253.41;5112948;28;20382;-62
2022/03/11 10:49:50;;;;;;;15.40;8.75;;;;;;;21.53;27.91;100243.72;5112543;28;20024;-62
2022/03/11 10:52:31;;;;;;;14.93;8.38;;;;;;;21.82;26.23;100245.16;5112338;28;20408;-62
2022/03/11 10:54:58;;;;;;;16.80;8.20;;;;;;;21.97;26.77;100244.00;5112231;28;20100;-62
2022/03/11 10:57:36;;;;;;;19.08;9.20;;;;;;;21.36;26.45;100250.38;5092304;28;20111;-62
2022/03/11 11:00:29;;;;;;;21.30;8.38;;;;;;;21.50;28.71;100238.53;5092500;28;20031;-62
2022/03/11 11:02:57;;;;;;;16.37;9.73;;;;;;;21.67;27.74;100236.31;5094547;28;20367;-62
2022/03/11 11:05:24;;;;;;;19.60;9.02;;;;;;;21.88;27.25;100231.13;5092481;28;20278;-62
2022/03/11 11:07:51;;;;;;;19.35;9.27;;;;;;;22.29;26.70;100228.84;5092082;28;20065;-62
2022/03/11 11:10:20;;;;;;;15.77;8.68;;;;;;;22.12;26.73;100238.28;5091806;28;20023;-62
2022/03/11 11:12:47;;;;;;;14.93;8.70;;;;;;;22.09;27.02;100226.84;5092228;28;20034;-62
2022/03/11 11:15:14;;;;;;;15.75;8.70;;;;;;;21.95;27.54;100224.28;5095013;28;20356;-62
2022/03/11 11:17:42;;;;;;;16.52;9.00;;;;;;;21.80;27.71;100220.91;5092601;28;20407;-62